createdAt,value
2018-03-02T00:03:44.672Z,14.4
2018-03-02T00:13:59.666Z,12.6
2018-03-02T00:24:11.872Z,12.8
2018-03-02T00:34:24.417Z,13.0
2018-03-02T00:44:42.824Z,13.0
2018-03-02T00:55:28.868Z,14.4
2018-03-02T01:06:17.848Z,18.4
2018-03-02T01:16:31.533Z,12.8
2018-03-02T01:27:18.880Z,12.5
2018-03-02T01:37:33.005Z,12.7
2018-03-02T01:47:46.942Z,13.8
2018-03-02T01:57:58.923Z,12.8
2018-03-02T02:08:13.455Z,12.3
2018-03-02T02:18:32.017Z,14.4
2018-03-02T02:28:49.245Z,12.3
2018-03-02T02:49:52.168Z,16.6
2018-03-02T03:00:44.172Z,12.7
2018-03-02T03:11:42.634Z,12.9
2018-03-02T03:22:04.696Z,12.6
2018-03-02T03:32:28.689Z,12.9
2018-03-02T03:42:43.653Z,12.3
2018-03-02T03:52:58.114Z,14.3
2018-03-02T04:03:49.147Z,12.3
2018-03-02T04:14:15.007Z,12.1
2018-03-02T04:25:00.658Z,12.0
2018-03-02T04:35:46.628Z,12.5
2018-03-02T04:46:32.118Z,12.2
2018-03-02T04:56:45.173Z,11.9
2018-03-02T05:06:58.549Z,15.4
2018-03-02T05:17:43.761Z,17.8
2018-03-02T05:27:55.702Z,23.6
2018-03-02T05:38:10.853Z,21.7
2018-03-02T05:48:56.291Z,12.5
2018-03-02T06:00:05.606Z,12.0
2018-03-02T06:10:17.618Z,13.9
2018-03-02T06:20:32.106Z,12.2
2018-03-02T06:30:56.148Z,11.6
2018-03-02T06:41:10.215Z,12.1
2018-03-02T06:51:55.980Z,12.5
2018-03-02T07:02:41.360Z,11.5
2018-03-02T07:13:26.158Z,16.1
2018-03-02T07:24:10.680Z,16.3
2018-03-02T07:36:03.605Z,12.9
2018-03-02T07:46:17.208Z,11.7
2018-03-02T07:56:31.497Z,12.6
2018-03-02T08:06:45.949Z,12.3
2018-03-02T08:17:31.980Z,12.9
2018-03-02T08:27:45.956Z,13.9
2018-03-02T08:38:00.331Z,25.8
2018-03-02T08:48:40.913Z,15.8
2018-03-02T08:59:16.306Z,19.4
2018-03-02T09:09:30.903Z,19.9
2018-03-02T09:20:55.119Z,50.0
2018-03-02T09:34:11.906Z,16.4
2018-03-02T09:44:48.291Z,24.5
2018-03-02T09:55:32.223Z,35.7
2018-03-02T10:06:03.356Z,21.2
2018-03-02T10:16:29.260Z,24.7
2018-03-02T10:26:53.760Z,25.6
2018-03-02T10:37:17.970Z,25.9
2018-03-02T10:48:53.110Z,29.3
2018-03-02T10:59:21.990Z,26.6
2018-03-02T11:10:01.228Z,34.2
2018-03-02T11:20:15.618Z,38.3
2018-03-02T11:30:50.927Z,32.5
2018-03-02T11:41:16.300Z,31.5
2018-03-02T12:12:38.714Z,43.5
2018-03-02T12:22:56.538Z,35.5
2018-03-02T12:33:20.014Z,36.5
2018-03-02T12:43:44.573Z,39.9
2018-03-02T12:55:02.194Z,52.5
2018-03-02T13:05:26.648Z,32.6
2018-03-02T13:16:37.242Z,51.5
2018-03-02T13:28:30.437Z,36.8
2018-03-02T13:39:17.730Z,38.2
2018-03-02T13:49:51.566Z,37.3
2018-03-02T14:01:41.114Z,36.9
2018-03-02T14:23:58.211Z,41.8
2018-03-02T14:53:29.757Z,30.7
2018-03-02T15:26:48.994Z,32.7
2018-03-02T16:35:23.935Z,41.1
2018-03-02T16:45:43.401Z,22.8
2018-03-02T17:00:10.947Z,52.0
2018-03-02T17:57:52.167Z,26.6
2018-03-02T18:09:24.065Z,17.2
2018-03-02T18:19:54.388Z,37.4
2018-03-02T18:30:59.740Z,29.6
2018-03-02T18:42:41.569Z,35.7
2018-03-02T18:53:20.497Z,14.9
2018-03-02T19:16:34.286Z,18.2
2018-03-02T20:10:27.719Z,16.2
2018-03-02T20:52:43.251Z,14.4
2018-03-02T21:19:41.328Z,17.4
2018-03-02T21:29:56.378Z,15.3
2018-03-02T21:40:11.374Z,17.3
2018-03-02T21:50:27.424Z,30.5
2018-03-02T22:00:41.930Z,20.0
2018-03-02T22:10:54.330Z,13.6
2018-03-02T22:21:08.331Z,13.5
2018-03-02T22:31:22.520Z,14.0
2018-03-02T22:41:36.925Z,21.5
2018-03-02T22:52:14.378Z,13.7
2018-03-02T23:02:28.584Z,15.1
2018-03-02T23:12:42.285Z,13.4
2018-03-02T23:22:56.602Z,13.5
2018-03-02T23:33:11.145Z,17.3
2018-03-02T23:43:23.512Z,13.7
2018-03-02T23:53:37.171Z,13.4
